sensor_id;sensor_type;location;lat;lon;timestamp;pressure;altitude;pressure_sealevel;temperature;humidity
5413;BME280;2729;50.056;8.678;2023-02-28T00:01:13;101403.00;;;1.39;100.00
5413;BME280;2729;50.056;8.678;2023-02-28T00:03:39;101407.03;;;1.31;100.00
5413;BME280;2729;50.056;8.678;2023-02-28T00:06:06;101400.88;;;1.26;100.00
5413;BME280;2729;50.056;8.678;2023-02-28T00:08:33;101411.78;;;1.19;100.00
5413;BME280;2729;50.056;8.678;2023-02-28T00:11:03;101411.03;;;1.21;100.00
5413;BME280;2729;50.056;8.678;2023-02-28T00:13:29;101406.81;;;0.96;100.00
5413;BME280;2729;50.056;8.678;2023-02-28T00:16:02;101409.28;;;1.20;100.00
5413;BME280;2729;50.056;8.678;2023-02-28T00:18:28;101407.59;;;1.49;99.43
5413;BME280;2729;50.056;8.678;2023-02-28T00:20:54;101402.72;;;1.58;98.15
5413;BME280;2729;50.056;8.678;2023-02-28T00:23:20;101399.75;;;1.75;100.00
5413;BME280;2729;50.056;8.678;2023-02-28T00:25:46;101406.56;;;1.73;100.00
5413;BME280;2729;50.056;8.678;2023-02-28T00:28:13;101407.50;;;1.75;100.00
5413;BME280;2729;50.056;8.678;2023-02-28T00:30:40;101408.44;;;1.78;100.00
5413;BME280;2729;50.056;8.678;2023-02-28T00:33:06;101408.03;;;1.65;100.00
5413;BME280;2729;50.056;8.678;2023-02-28T00:35:32;101403.88;;;1.68;100.00
5413;BME280;2729;50.056;8.678;2023-02-28T00:37:58;101418.84;;;1.53;100.00
5413;BME280;2729;50.056;8.678;2023-02-28T00:40:24;101418.81;;;1.51;100.00
5413;BME280;2729;50.056;8.678;2023-02-28T00:42:50;101411.91;;;1.50;100.00
5413;BME280;2729;50.056;8.678;2023-02-28T00:45:16;101408.22;;;1.42;100.00
5413;BME280;2729;50.056;8.678;2023-02-28T00:47:42;101413.97;;;1.34;100.00
5413;BME280;2729;50.056;8.678;2023-02-28T00:50:09;101413.31;;;1.41;100.00
5413;BME280;2729;50.056;8.678;2023-02-28T00:52:36;101412.38;;;1.37;100.00
5413;BME280;2729;50.056;8.678;2023-02-28T00:55:02;101415.56;;;1.30;100.00
5413;BME280;2729;50.056;8.678;2023-02-28T00:57:29;101413.78;;;1.27;100.00
5413;BME280;2729;50.056;8.678;2023-02-28T00:59:55;101413.63;;;1.23;100.00
5413;BME280;2729;50.056;8.678;2023-02-28T01:02:22;101406.66;;;1.19;100.00
5413;BME280;2729;50.056;8.678;2023-02-28T01:04:48;101414.28;;;1.16;100.00
5413;BME280;2729;50.056;8.678;2023-02-28T01:07:14;101408.81;;;1.34;100.00
5413;BME280;2729;50.056;8.678;2023-02-28T01:09:41;101413.72;;;1.26;100.00
5413;BME280;2729;50.056;8.678;2023-02-28T01:12:08;101409.06;;;1.14;100.00
5413;BME280;2729;50.056;8.678;2023-02-28T01:14:34;101406.88;;;1.26;100.00
5413;BME280;2729;50.056;8.678;2023-02-28T01:17:01;101406.84;;;1.25;100.00
5413;BME280;2729;50.056;8.678;2023-02-28T01:19:27;101413.84;;;1.02;100.00
5413;BME280;2729;50.056;8.678;2023-02-28T01:21:53;101406.56;;;1.16;100.00
5413;BME280;2729;50.056;8.678;2023-02-28T01:24:19;101406.56;;;0.89;100.00
5413;BME280;2729;50.056;8.678;2023-02-28T01:26:45;101403.09;;;0.88;100.00
5413;BME280;2729;50.056;8.678;2023-02-28T01:29:11;101403.84;;;0.84;100.00
5413;BME280;2729;50.056;8.678;2023-02-28T01:31:37;101398.78;;;0.87;100.00
5413;BME280;2729;50.056;8.678;2023-02-28T01:34:03;101398.66;;;0.83;100.00
5413;BME280;2729;50.056;8.678;2023-02-28T01:36:31;101400.38;;;0.84;100.00
5413;BME280;2729;50.056;8.678;2023-02-28T01:38:56;101394.38;;;0.83;100.00
5413;BME280;2729;50.056;8.678;2023-02-28T01:41:28;101389.75;;;0.73;100.00
5413;BME280;2729;50.056;8.678;2023-02-28T01:44:53;101399.41;;;0.80;100.00
5413;BME280;2729;50.056;8.678;2023-02-28T01:46:52;101395.88;;;0.77;100.00
5413;BME280;2729;50.056;8.678;2023-02-28T01:49:18;101401.88;;;0.77;100.00
5413;BME280;2729;50.056;8.678;2023-02-28T01:51:49;101393.16;;;0.72;100.00
5413;BME280;2729;50.056;8.678;2023-02-28T01:54:31;101394.50;;;0.61;100.00
5413;BME280;2729;50.056;8.678;2023-02-28T01:57:14;101401.28;;;0.59;100.00
5413;BME280;2729;50.056;8.678;2023-02-28T01:59:44;101394.59;;;0.64;100.00
5413;BME280;2729;50.056;8.678;2023-02-28T02:02:19;101390.34;;;0.64;100.00
5413;BME280;2729;50.056;8.678;2023-02-28T02:04:53;101391.06;;;0.60;100.00
5413;BME280;2729;50.056;8.678;2023-02-28T02:07:35;101396.56;;;0.46;100.00
5413;BME280;2729;50.056;8.678;2023-02-28T02:10:11;101389.63;;;0.43;100.00
5413;BME280;2729;50.056;8.678;2023-02-28T02:13:08;101391.25;;;0.41;100.00
5413;BME280;2729;50.056;8.678;2023-02-28T02:18:40;101390.06;;;0.31;100.00
5413;BME280;2729;50.056;8.678;2023-02-28T02:27:38;101380.88;;;0.38;100.00
5413;BME280;2729;50.056;8.678;2023-02-28T02:30:15;101383.53;;;0.16;100.00
5413;BME280;2729;50.056;8.678;2023-02-28T02:33:06;101379.81;;;0.31;100.00
5413;BME280;2729;50.056;8.678;2023-02-28T02:38:12;101380.84;;;0.37;100.00
5413;BME280;2729;50.056;8.678;2023-02-28T02:43:32;101379.81;;;0.31;100.00
5413;BME280;2729;50.056;8.678;2023-02-28T02:46:06;101382.78;;;-0.04;100.00
5413;BME280;2729;50.056;8.678;2023-02-28T02:48:38;101378.16;;;0.34;100.00
5413;BME280;2729;50.056;8.678;2023-02-28T02:51:10;101372.97;;;0.32;100.00
5413;BME280;2729;50.056;8.678;2023-02-28T02:53:46;101381.72;;;0.13;100.00
5413;BME280;2729;50.056;8.678;2023-02-28T02:56:17;101378.25;;;0.37;100.00
5413;BME280;2729;50.056;8.678;2023-02-28T02:58:47;101378.16;;;0.34;100.00
5413;BME280;2729;50.056;8.678;2023-02-28T03:01:18;101374.56;;;0.28;100.00
5413;BME280;2729;50.056;8.678;2023-02-28T03:03:59;101376.72;;;0.42;100.00
5413;BME280;2729;50.056;8.678;2023-02-28T03:06:26;101374.97;;;0.41;100.00
5413;BME280;2729;50.056;8.678;2023-02-28T03:08:53;101376.91;;;0.22;100.00
5413;BME280;2729;50.056;8.678;2023-02-28T03:11:19;101371.22;;;0.31;100.00
5413;BME280;2729;50.056;8.678;2023-02-28T03:13:58;101376.22;;;0.26;100.00
5413;BME280;2729;50.056;8.678;2023-02-28T03:16:37;101377.84;;;0.24;100.00
5413;BME280;2729;50.056;8.678;2023-02-28T03:25:00;101372.22;;;0.35;100.00
5413;BME280;2729;50.056;8.678;2023-02-28T03:30:25;101371.63;;;0.18;100.00
5413;BME280;2729;50.056;8.678;2023-02-28T03:33:06;101368.56;;;0.28;100.00
5413;BME280;2729;50.056;8.678;2023-02-28T03:35:43;101375.81;;;0.40;100.00
5413;BME280;2729;50.056;8.678;2023-02-28T03:38:24;101365.94;;;0.26;100.00
5413;BME280;2729;50.056;8.678;2023-02-28T03:41:06;101364.84;;;0.20;100.00
5413;BME280;2729;50.056;8.678;2023-02-28T03:43:38;101363.97;;;0.19;100.00
5413;BME280;2729;50.056;8.678;2023-02-28T03:46:10;101369.50;;;0.06;100.00
5413;BME280;2729;50.056;8.678;2023-02-28T03:48:45;101375.47;;;0.05;100.00
5413;BME280;2729;50.056;8.678;2023-02-28T03:51:16;101367.66;;;0.02;100.00
5413;BME280;2729;50.056;8.678;2023-02-28T03:53:52;101366.72;;;0.00;100.00
5413;BME280;2729;50.056;8.678;2023-02-28T03:56:42;101378.03;;;0.05;100.00
5413;BME280;2729;50.056;8.678;2023-02-28T03:59:15;101374.28;;;-0.03;100.00
5413;BME280;2729;50.056;8.678;2023-02-28T04:01:46;101370.06;;;-0.01;100.00
5413;BME280;2729;50.056;8.678;2023-02-28T04:04:14;101380.00;;;-0.10;100.00
5413;BME280;2729;50.056;8.678;2023-02-28T04:06:41;101380.50;;;-0.20;100.00
5413;BME280;2729;50.056;8.678;2023-02-28T04:09:10;101387.50;;;-0.16;100.00
5413;BME280;2729;50.056;8.678;2023-02-28T04:11:39;101380.88;;;-0.10;100.00
5413;BME280;2729;50.056;8.678;2023-02-28T04:14:06;101381.03;;;-0.29;100.00
5413;BME280;2729;50.056;8.678;2023-02-28T04:16:34;101384.38;;;-0.32;100.00
5413;BME280;2729;50.056;8.678;2023-02-28T04:19:02;101388.50;;;-0.35;100.00
5413;BME280;2729;50.056;8.678;2023-02-28T04:21:33;101388.69;;;-0.30;100.00
5413;BME280;2729;50.056;8.678;2023-02-28T04:23:59;101386.66;;;-0.39;100.00
5413;BME280;2729;50.056;8.678;2023-02-28T04:26:34;101388.78;;;-0.27;100.00
5413;BME280;2729;50.056;8.678;2023-02-28T04:29:02;101388.38;;;-0.16;100.00
5413;BME280;2729;50.056;8.678;2023-02-28T04:31:28;101382.69;;;-0.07;100.00
5413;BME280;2729;50.056;8.678;2023-02-28T04:33:54;101386.44;;;-0.21;100.00
5413;BME280;2729;50.056;8.678;2023-02-28T04:36:20;101388.59;;;-0.10;100.00
5413;BME280;2729;50.056;8.678;2023-02-28T04:38:48;101388.56;;;0.13;100.00
5413;BME280;2729;50.056;8.678;2023-02-28T04:41:16;101382.13;;;0.00;100.00
5413;BME280;2729;50.056;8.678;2023-02-28T04:43:42;101383.72;;;-0.02;100.00
5413;BME280;2729;50.056;8.678;2023-02-28T04:46:09;101374.91;;;0.14;100.00
5413;BME280;2729;50.056;8.678;2023-02-28T04:48:37;101381.09;;;-0.04;100.00
5413;BME280;2729;50.056;8.678;2023-02-28T04:51:07;101377.72;;;-0.03;100.00
5413;BME280;2729;50.056;8.678;2023-02-28T04:53:35;101380.44;;;0.01;100.00
5413;BME280;2729;50.056;8.678;2023-02-28T04:56:01;101372.72;;;0.01;100.00
5413;BME280;2729;50.056;8.678;2023-02-28T04:58:27;101380.56;;;-0.19;100.00
5413;BME280;2729;50.056;8.678;2023-02-28T05:00:54;101381.75;;;-0.09;100.00
5413;BME280;2729;50.056;8.678;2023-02-28T05:03:20;101385.69;;;-0.19;100.00
5413;BME280;2729;50.056;8.678;2023-02-28T05:05:48;101385.63;;;-0.20;100.00
5413;BME280;2729;50.056;8.678;2023-02-28T05:08:14;101386.06;;;-0.32;100.00
5413;BME280;2729;50.056;8.678;2023-02-28T05:10:41;101380.28;;;-0.26;100.00
5413;BME280;2729;50.056;8.678;2023-02-28T05:13:11;101383.88;;;-0.21;100.00
5413;BME280;2729;50.056;8.678;2023-02-28T05:15:38;101377.06;;;-0.21;100.00
5413;BME280;2729;50.056;8.678;2023-02-28T05:18:08;101385.91;;;-0.13;100.00
5413;BME280;2729;50.056;8.678;2023-02-28T05:20:35;101386.00;;;-0.34;100.00
5413;BME280;2729;50.056;8.678;2023-02-28T05:23:02;101387.56;;;-0.37;100.00
5413;BME280;2729;50.056;8.678;2023-02-28T05:25:29;101384.97;;;-0.39;100.00
5413;BME280;2729;50.056;8.678;2023-02-28T05:27:55;101391.13;;;-0.34;100.00
5413;BME280;2729;50.056;8.678;2023-02-28T05:30:20;101397.66;;;-0.42;100.00
5413;BME280;2729;50.056;8.678;2023-02-28T05:32:50;101386.78;;;-0.12;100.00
5413;BME280;2729;50.056;8.678;2023-02-28T05:35:16;101392.34;;;-0.24;100.00
5413;BME280;2729;50.056;8.678;2023-02-28T05:37:44;101388.97;;;-0.23;100.00
5413;BME280;2729;50.056;8.678;2023-02-28T05:40:12;101396.13;;;-0.14;100.00
5413;BME280;2729;50.056;8.678;2023-02-28T05:42:38;101391.91;;;-0.12;100.00
5413;BME280;2729;50.056;8.678;2023-02-28T05:45:06;101392.56;;;-0.18;100.00
5413;BME280;2729;50.056;8.678;2023-02-28T05:47:34;101395.41;;;-0.10;100.00
5413;BME280;2729;50.056;8.678;2023-02-28T05:50:00;101399.00;;;-0.29;100.00
5413;BME280;2729;50.056;8.678;2023-02-28T05:52:27;101397.53;;;-0.22;100.00
5413;BME280;2729;50.056;8.678;2023-02-28T05:54:53;101400.03;;;-0.24;100.00
5413;BME280;2729;50.056;8.678;2023-02-28T05:57:19;101398.88;;;-0.32;100.00
5413;BME280;2729;50.056;8.678;2023-02-28T05:59:45;101397.81;;;-0.15;100.00
5413;BME280;2729;50.056;8.678;2023-02-28T06:02:14;101393.03;;;-0.28;100.00
5413;BME280;2729;50.056;8.678;2023-02-28T06:04:40;101399.44;;;-0.17;100.00
5413;BME280;2729;50.056;8.678;2023-02-28T06:07:08;101403.69;;;-0.17;100.00
5413;BME280;2729;50.056;8.678;2023-02-28T06:09:34;101399.00;;;-0.05;100.00
5413;BME280;2729;50.056;8.678;2023-02-28T06:12:01;101402.44;;;-0.05;100.00
5413;BME280;2729;50.056;8.678;2023-02-28T06:14:29;101400.41;;;0.09;100.00
5413;BME280;2729;50.056;8.678;2023-02-28T06:16:57;101400.53;;;-0.10;100.00
5413;BME280;2729;50.056;8.678;2023-02-28T06:19:23;101404.56;;;-0.17;100.00
5413;BME280;2729;50.056;8.678;2023-02-28T06:21:52;101406.22;;;-0.19;100.00
5413;BME280;2729;50.056;8.678;2023-02-28T06:24:21;101411.50;;;-0.14;100.00
5413;BME280;2729;50.056;8.678;2023-02-28T06:26:48;101410.47;;;-0.19;100.00
5413;BME280;2729;50.056;8.678;2023-02-28T06:29:14;101416.31;;;-0.23;100.00
5413;BME280;2729;50.056;8.678;2023-02-28T06:31:44;101417.88;;;-0.27;100.00
5413;BME280;2729;50.056;8.678;2023-02-28T06:34:11;101423.34;;;-0.18;100.00
5413;BME280;2729;50.056;8.678;2023-02-28T06:36:41;101417.56;;;-0.12;100.00
5413;BME280;2729;50.056;8.678;2023-02-28T06:39:09;101425.25;;;-0.12;100.00
5413;BME280;2729;50.056;8.678;2023-02-28T06:41:35;101431.91;;;0.05;100.00
5413;BME280;2729;50.056;8.678;2023-02-28T06:44:04;101423.50;;;-0.13;100.00
5413;BME280;2729;50.056;8.678;2023-02-28T06:46:31;101429.47;;;0.08;100.00
5413;BME280;2729;50.056;8.678;2023-02-28T06:48:57;101430.72;;;0.19;100.00
5413;BME280;2729;50.056;8.678;2023-02-28T06:51:23;101431.59;;;0.20;100.00
5413;BME280;2729;50.056;8.678;2023-02-28T06:53:50;101433.22;;;0.42;100.00
5413;BME280;2729;50.056;8.678;2023-02-28T06:56:17;101438.03;;;0.32;100.00
5413;BME280;2729;50.056;8.678;2023-02-28T06:58:48;101441.41;;;0.55;100.00
5413;BME280;2729;50.056;8.678;2023-02-28T07:01:16;101434.16;;;0.44;100.00
5413;BME280;2729;50.056;8.678;2023-02-28T07:03:42;101435.34;;;0.53;100.00
5413;BME280;2729;50.056;8.678;2023-02-28T07:06:08;101442.06;;;0.50;100.00
5413;BME280;2729;50.056;8.678;2023-02-28T07:08:34;101439.25;;;0.68;100.00
5413;BME280;2729;50.056;8.678;2023-02-28T07:11:01;101441.97;;;0.72;100.00
5413;BME280;2729;50.056;8.678;2023-02-28T07:13:27;101432.81;;;0.80;99.48
5413;BME280;2729;50.056;8.678;2023-02-28T07:15:55;101436.22;;;0.79;96.97
5413;BME280;2729;50.056;8.678;2023-02-28T07:18:21;101433.38;;;0.97;96.73
5413;BME280;2729;50.056;8.678;2023-02-28T07:20:48;101434.06;;;1.18;94.30
5413;BME280;2729;50.056;8.678;2023-02-28T07:23:13;101446.97;;;1.20;93.83
5413;BME280;2729;50.056;8.678;2023-02-28T07:25:39;101433.53;;;1.28;93.34
5413;BME280;2729;50.056;8.678;2023-02-28T07:28:05;101442.56;;;1.16;96.16
5413;BME280;2729;50.056;8.678;2023-02-28T07:30:31;101440.91;;;1.18;94.28
5413;BME280;2729;50.056;8.678;2023-02-28T07:32:58;101441.75;;;1.45;92.21
5413;BME280;2729;50.056;8.678;2023-02-28T07:35:23;101430.28;;;1.63;90.18
5413;BME280;2729;50.056;8.678;2023-02-28T07:37:49;101441.06;;;1.51;88.41
5413;BME280;2729;50.056;8.678;2023-02-28T07:40:16;101438.91;;;1.65;86.75
5413;BME280;2729;50.056;8.678;2023-02-28T07:42:43;101426.59;;;1.83;86.49
5413;BME280;2729;50.056;8.678;2023-02-28T07:45:10;101435.38;;;1.89;86.26
5413;BME280;2729;50.056;8.678;2023-02-28T07:47:38;101435.19;;;1.83;87.40
5413;BME280;2729;50.056;8.678;2023-02-28T07:50:06;101434.66;;;1.95;84.81
5413;BME280;2729;50.056;8.678;2023-02-28T07:52:32;101438.59;;;2.12;83.79
5413;BME280;2729;50.056;8.678;2023-02-28T07:54:58;101434.75;;;1.98;83.41
5413;BME280;2729;50.056;8.678;2023-02-28T07:57:24;101430.22;;;1.89;83.51
5413;BME280;2729;50.056;8.678;2023-02-28T07:59:51;101442.28;;;2.22;83.57
5413;BME280;2729;50.056;8.678;2023-02-28T08:02:18;101438.88;;;2.23;83.17
5413;BME280;2729;50.056;8.678;2023-02-28T08:04:45;101445.25;;;2.36;83.30
5413;BME280;2729;50.056;8.678;2023-02-28T08:07:12;101447.66;;;2.30;81.87
5413;BME280;2729;50.056;8.678;2023-02-28T08:09:39;101444.34;;;2.34;81.45
5413;BME280;2729;50.056;8.678;2023-02-28T08:12:07;101452.31;;;2.43;80.77
5413;BME280;2729;50.056;8.678;2023-02-28T08:14:33;101446.00;;;2.63;81.84
5413;BME280;2729;50.056;8.678;2023-02-28T08:16:59;101441.38;;;2.51;79.94
5413;BME280;2729;50.056;8.678;2023-02-28T08:19:26;101452.59;;;2.53;80.40
5413;BME280;2729;50.056;8.678;2023-02-28T08:21:52;101449.09;;;2.51;79.52
5413;BME280;2729;50.056;8.678;2023-02-28T08:24:18;101455.53;;;2.66;80.54
5413;BME280;2729;50.056;8.678;2023-02-28T08:26:44;101458.53;;;2.51;76.80
5413;BME280;2729;50.056;8.678;2023-02-28T08:29:10;101451.50;;;2.75;77.27
5413;BME280;2729;50.056;8.678;2023-02-28T08:31:36;101443.75;;;2.75;77.14
5413;BME280;2729;50.056;8.678;2023-02-28T08:34:15;101445.47;;;2.75;75.13
5413;BME280;2729;50.056;8.678;2023-02-28T08:36:41;101450.22;;;2.93;75.19
5413;BME280;2729;50.056;8.678;2023-02-28T08:39:10;101444.81;;;2.83;75.42
5413;BME280;2729;50.056;8.678;2023-02-28T08:41:36;101450.44;;;3.02;75.12
5413;BME280;2729;50.056;8.678;2023-02-28T08:44:02;101447.94;;;3.05;74.52
5413;BME280;2729;50.056;8.678;2023-02-28T08:46:28;101449.34;;;2.92;73.21
5413;BME280;2729;50.056;8.678;2023-02-28T08:48:56;101452.25;;;3.06;70.70
5413;BME280;2729;50.056;8.678;2023-02-28T08:51:25;101447.25;;;3.12;70.59
5413;BME280;2729;50.056;8.678;2023-02-28T08:53:55;101463.69;;;3.17;70.35
5413;BME280;2729;50.056;8.678;2023-02-28T08:56:21;101460.38;;;3.21;69.88
5413;BME280;2729;50.056;8.678;2023-02-28T08:58:48;101454.75;;;3.39;68.90
5413;BME280;2729;50.056;8.678;2023-02-28T09:01:17;101462.88;;;3.18;67.72
5413;BME280;2729;50.056;8.678;2023-02-28T09:03:46;101452.88;;;3.32;67.21
5413;BME280;2729;50.056;8.678;2023-02-28T09:06:13;101448.19;;;3.51;66.85
5413;BME280;2729;50.056;8.678;2023-02-28T09:08:40;101435.41;;;3.58;65.90
5413;BME280;2729;50.056;8.678;2023-02-28T09:11:06;101444.25;;;3.69;65.89
5413;BME280;2729;50.056;8.678;2023-02-28T09:13:33;101444.00;;;3.57;64.84
5413;BME280;2729;50.056;8.678;2023-02-28T09:16:02;101441.72;;;3.70;65.65
5413;BME280;2729;50.056;8.678;2023-02-28T09:18:29;101441.28;;;3.50;64.74
5413;BME280;2729;50.056;8.678;2023-02-28T09:20:55;101437.53;;;3.75;63.23
5413;BME280;2729;50.056;8.678;2023-02-28T09:23:21;101429.91;;;3.81;62.97
5413;BME280;2729;50.056;8.678;2023-02-28T09:25:52;101440.16;;;3.78;63.14
5413;BME280;2729;50.056;8.678;2023-02-28T09:28:19;101436.06;;;3.88;62.02
5413;BME280;2729;50.056;8.678;2023-02-28T09:30:50;101436.66;;;3.75;63.08
5413;BME280;2729;50.056;8.678;2023-02-28T09:33:17;101442.13;;;3.90;61.99
5413;BME280;2729;50.056;8.678;2023-02-28T09:35:44;101434.41;;;3.92;61.75
5413;BME280;2729;50.056;8.678;2023-02-28T09:38:10;101439.00;;;4.05;61.12
5413;BME280;2729;50.056;8.678;2023-02-28T09:40:48;101432.94;;;4.03;60.78
5413;BME280;2729;50.056;8.678;2023-02-28T09:43:16;101437.69;;;3.83;60.75
5413;BME280;2729;50.056;8.678;2023-02-28T09:45:50;101432.41;;;4.19;61.47
5413;BME280;2729;50.056;8.678;2023-02-28T09:48:21;101432.06;;;4.46;60.40
5413;BME280;2729;50.056;8.678;2023-02-28T09:50:52;101425.81;;;4.35;59.38
5413;BME280;2729;50.056;8.678;2023-02-28T09:53:27;101428.63;;;4.47;59.60
5413;BME280;2729;50.056;8.678;2023-02-28T09:55:57;101427.94;;;4.57;58.69
5413;BME280;2729;50.056;8.678;2023-02-28T09:58:28;101423.97;;;4.76;58.09
5413;BME280;2729;50.056;8.678;2023-02-28T10:01:04;101415.81;;;4.53;57.12
5413;BME280;2729;50.056;8.678;2023-02-28T10:06:23;101421.34;;;5.24;57.25
5413;BME280;2729;50.056;8.678;2023-02-28T10:09:18;101421.41;;;5.29;55.15
5413;BME280;2729;50.056;8.678;2023-02-28T10:11:48;101419.13;;;5.50;54.07
5413;BME280;2729;50.056;8.678;2023-02-28T10:14:19;101419.25;;;5.03;54.08
5413;BME280;2729;50.056;8.678;2023-02-28T10:16:50;101418.81;;;5.27;54.51
5413;BME280;2729;50.056;8.678;2023-02-28T10:19:28;101428.50;;;5.40;54.70
5413;BME280;2729;50.056;8.678;2023-02-28T10:22:11;101414.34;;;5.79;53.40
5413;BME280;2729;50.056;8.678;2023-02-28T10:24:46;101419.59;;;5.84;52.39
5413;BME280;2729;50.056;8.678;2023-02-28T10:27:15;101415.47;;;5.96;51.70
5413;BME280;2729;50.056;8.678;2023-02-28T10:29:44;101413.34;;;5.68;51.60
5413;BME280;2729;50.056;8.678;2023-02-28T10:32:17;101407.13;;;5.55;52.02
5413;BME280;2729;50.056;8.678;2023-02-28T10:34:44;101407.53;;;5.86;50.60
5413;BME280;2729;50.056;8.678;2023-02-28T10:37:12;101399.72;;;5.84;50.05
5413;BME280;2729;50.056;8.678;2023-02-28T10:39:44;101407.84;;;6.10;50.42
5413;BME280;2729;50.056;8.678;2023-02-28T10:42:37;101409.00;;;6.35;50.09
5413;BME280;2729;50.056;8.678;2023-02-28T10:45:13;101401.97;;;6.25;49.25
5413;BME280;2729;50.056;8.678;2023-02-28T10:47:49;101396.91;;;6.35;49.18
5413;BME280;2729;50.056;8.678;2023-02-28T10:50:29;101414.16;;;6.32;49.36
5413;BME280;2729;50.056;8.678;2023-02-28T10:53:07;101400.47;;;6.48;48.66
5413;BME280;2729;50.056;8.678;2023-02-28T10:55:34;101398.09;;;6.71;49.09
5413;BME280;2729;50.056;8.678;2023-02-28T10:58:00;101402.75;;;7.12;48.57
5413;BME280;2729;50.056;8.678;2023-02-28T11:00:33;101397.38;;;6.87;47.25
5413;BME280;2729;50.056;8.678;2023-02-28T11:03:00;101407.50;;;6.58;48.21
5413;BME280;2729;50.056;8.678;2023-02-28T11:05:32;101406.75;;;6.71;48.61
5413;BME280;2729;50.056;8.678;2023-02-28T11:08:10;101407.28;;;6.37;48.31
5413;BME280;2729;50.056;8.678;2023-02-28T11:10:38;101410.66;;;6.28;49.53
5413;BME280;2729;50.056;8.678;2023-02-28T11:13:04;101404.56;;;6.26;49.07
5413;BME280;2729;50.056;8.678;2023-02-28T11:15:33;101400.22;;;6.24;48.63
5413;BME280;2729;50.056;8.678;2023-02-28T11:20:38;101389.22;;;6.46;48.73
5413;BME280;2729;50.056;8.678;2023-02-28T11:23:04;101393.47;;;6.39;48.90
5413;BME280;2729;50.056;8.678;2023-02-28T11:25:38;101394.38;;;6.43;49.31
5413;BME280;2729;50.056;8.678;2023-02-28T11:28:21;101386.63;;;6.46;49.12
5413;BME280;2729;50.056;8.678;2023-02-28T11:33:30;101391.66;;;6.31;49.82
5413;BME280;2729;50.056;8.678;2023-02-28T11:36:01;101397.88;;;6.47;49.48
5413;BME280;2729;50.056;8.678;2023-02-28T11:38:27;101385.22;;;5.94;48.98
5413;BME280;2729;50.056;8.678;2023-02-28T11:41:02;101391.03;;;6.53;49.02
5413;BME280;2729;50.056;8.678;2023-02-28T11:49:32;101378.91;;;6.51;47.71
5413;BME280;2729;50.056;8.678;2023-02-28T11:54:55;101378.91;;;6.51;47.74
5413;BME280;2729;50.056;8.678;2023-02-28T11:57:57;101393.94;;;6.03;49.14
5413;BME280;2729;50.056;8.678;2023-02-28T12:03:31;101378.75;;;6.37;48.30
5413;BME280;2729;50.056;8.678;2023-02-28T12:06:23;101382.28;;;6.42;48.26
5413;BME280;2729;50.056;8.678;2023-02-28T12:09:34;101374.72;;;6.68;47.67
5413;BME280;2729;50.056;8.678;2023-02-28T12:12:38;101376.31;;;6.51;47.33
5413;BME280;2729;50.056;8.678;2023-02-28T12:15:17;101383.31;;;6.61;47.96
5413;BME280;2729;50.056;8.678;2023-02-28T12:20:43;101375.41;;;6.47;46.88
5413;BME280;2729;50.056;8.678;2023-02-28T12:28:20;101364.66;;;7.06;46.68
5413;BME280;2729;50.056;8.678;2023-02-28T12:30:56;101364.91;;;7.47;46.59
5413;BME280;2729;50.056;8.678;2023-02-28T12:33:27;101368.16;;;7.11;45.84
5413;BME280;2729;50.056;8.678;2023-02-28T12:35:57;101364.50;;;6.85;46.34
5413;BME280;2729;50.056;8.678;2023-02-28T12:38:29;101363.69;;;6.92;46.46
5413;BME280;2729;50.056;8.678;2023-02-28T12:41:02;101362.72;;;6.81;45.54
5413;BME280;2729;50.056;8.678;2023-02-28T12:43:42;101358.59;;;7.07;45.79
5413;BME280;2729;50.056;8.678;2023-02-28T12:46:13;101359.22;;;6.75;45.47
5413;BME280;2729;50.056;8.678;2023-02-28T12:48:44;101355.09;;;7.02;46.28
5413;BME280;2729;50.056;8.678;2023-02-28T12:51:12;101350.03;;;7.19;45.92
5413;BME280;2729;50.056;8.678;2023-02-28T12:56:43;101338.63;;;6.97;45.20
5413;BME280;2729;50.056;8.678;2023-02-28T13:02:17;101339.53;;;7.00;44.92
5413;BME280;2729;50.056;8.678;2023-02-28T13:10:23;101324.34;;;7.77;44.71
5413;BME280;2729;50.056;8.678;2023-02-28T13:12:53;101330.38;;;7.71;45.50
5413;BME280;2729;50.056;8.678;2023-02-28T13:15:27;101341.50;;;7.42;45.90
5413;BME280;2729;50.056;8.678;2023-02-28T13:17:56;101344.50;;;6.71;45.90
5413;BME280;2729;50.056;8.678;2023-02-28T13:20:26;101349.38;;;6.38;46.21
5413;BME280;2729;50.056;8.678;2023-02-28T13:22:53;101336.75;;;6.77;46.24
5413;BME280;2729;50.056;8.678;2023-02-28T13:28:12;101342.69;;;6.63;46.65
5413;BME280;2729;50.056;8.678;2023-02-28T13:33:29;101355.88;;;6.89;47.58
5413;BME280;2729;50.056;8.678;2023-02-28T13:38:41;101342.84;;;6.81;47.05
5413;BME280;2729;50.056;8.678;2023-02-28T13:44:09;101342.66;;;6.60;46.38
5413;BME280;2729;50.056;8.678;2023-02-28T13:47:21;101350.53;;;6.69;46.95
5413;BME280;2729;50.056;8.678;2023-02-28T13:52:06;101341.09;;;6.78;47.70
5413;BME280;2729;50.056;8.678;2023-02-28T13:55:21;101352.44;;;6.90;48.14
5413;BME280;2729;50.056;8.678;2023-02-28T13:57:57;101333.50;;;7.06;46.92
5413;BME280;2729;50.056;8.678;2023-02-28T14:06:31;101331.81;;;7.14;47.40
5413;BME280;2729;50.056;8.678;2023-02-28T14:09:02;101336.19;;;7.18;47.37
5413;BME280;2729;50.056;8.678;2023-02-28T14:11:35;101323.19;;;7.15;47.44
5413;BME280;2729;50.056;8.678;2023-02-28T14:14:02;101332.75;;;7.25;46.74
5413;BME280;2729;50.056;8.678;2023-02-28T14:16:46;101333.25;;;6.69;47.06
5413;BME280;2729;50.056;8.678;2023-02-28T14:19:25;101321.41;;;7.11;47.45
5413;BME280;2729;50.056;8.678;2023-02-28T14:22:05;101326.56;;;7.05;47.02
5413;BME280;2729;50.056;8.678;2023-02-28T14:24:51;101330.72;;;6.80;47.44
5413;BME280;2729;50.056;8.678;2023-02-28T14:27:37;101332.53;;;6.92;47.70
5413;BME280;2729;50.056;8.678;2023-02-28T14:30:26;101323.06;;;6.97;47.08
5413;BME280;2729;50.056;8.678;2023-02-28T14:38:28;101315.16;;;6.78;47.22
5413;BME280;2729;50.056;8.678;2023-02-28T14:40:57;101324.75;;;6.90;48.34
5413;BME280;2729;50.056;8.678;2023-02-28T14:43:26;101316.19;;;7.05;48.64
5413;BME280;2729;50.056;8.678;2023-02-28T14:45:59;101311.03;;;7.11;47.71
5413;BME280;2729;50.056;8.678;2023-02-28T14:48:26;101302.38;;;7.07;47.46
5413;BME280;2729;50.056;8.678;2023-02-28T14:50:57;101307.63;;;7.17;47.70
5413;BME280;2729;50.056;8.678;2023-02-28T14:53:28;101304.97;;;7.09;47.46
5413;BME280;2729;50.056;8.678;2023-02-28T14:55:55;101307.59;;;7.14;47.90
5413;BME280;2729;50.056;8.678;2023-02-28T14:58:30;101306.81;;;7.28;48.05
5413;BME280;2729;50.056;8.678;2023-02-28T15:00:59;101310.97;;;6.99;47.96